KRCR/RCR METAR and TAF weather

Enter ICAO airport designator
Station Type Date Time Source
KRCR METAR 2019/06/17 04:35 UTC NOAA

KRCR 170435Z AUTO 00000KT 3SM BR 18/17 A2991 RMK AO2 SKY OBSCURED


Station Type Date Time Source
KRCR Decoded METAR 2019/06/17 04:35 UTC NOAA

Station name not available
Jun 17, 2019 - 12:35 AM EDT / 2019.06.17 0435 UTC
Wind: Calm:0
Visibility: 3 mile(s):0
Weather: mist
Temperature: 64 F (18 C)
Dew Point: 62 F (17 C)
Relative Humidity: 93%
Pressure (altimeter): 29.91 in. Hg (1012 hPa)
ob: KRCR 170435Z AUTO 00000KT 3SM BR 18/17 A2991 RMK AO2 SKY OBSCURED
cycle: 4

Station Type Date Time Source
KRCR TAF UTC NOAA

Error!

Example: see airport list